Time;durP1;ratioP1;P1;durP2;ratioP2;P2;SDS_P1;SDS_P2;PMS_P1;PMS_P2;Temp;Humidity;BMP_temperature;BMP_pressure;BME280_temperature;BME280_humidity;BME280_pressure;Samples;Min_cycle;Max_cycle;Signal;HPM_P1;HPM_P2
2023/09/25 00:00:30;;;;;;;;;;;;;;;;;;;;;
2023/09/25 00:04:01;;;;;;;;;;;;;;;;;;;;;
2023/09/25 00:07:31;;;;;;;;;;;;;;;;;;;;;
2023/09/25 00:14:06;;;;;;;20.60;11.90;;;;;;;15.63;81.69;100099.41;107832;1260;106239;-93
2023/09/25 00:21:26;;;;;;;;;;;;;;;;;;;;;
2023/09/25 00:24:52;;;;;;;;;;;;;;;;;;;;;
2023/09/25 00:28:45;;;;;;;;;;;;;;;;;;;;;
2023/09/25 00:34:21;;;;;;;19.70;12.20;;;;;;;15.66;81.69;100085.66;107309;1264;93853;-91
2023/09/25 00:47:19;;;;;;;20.00;12.70;;;;;;;15.61;81.48;100072.42;107756;1261;108276;-92
2023/09/25 00:50:33;;;;;;;;;;;;;;;;;;;;;
2023/09/25 00:56:54;;;;;;;;;;;;;;;15.63;81.71;100076.60;107436;1268;110771;-92
2023/09/25 00:59:55;;;;;;;;;;;;;;;;;;;;;
2023/09/25 01:07:12;;;;;;;;;;;;;;;;;;;;;
2023/09/25 01:10:09;;;;;;;;;;;;;;;;;;;;;
2023/09/25 01:13:30;;;;;;;;;;;;;;;;;;;;;
2023/09/25 01:16:37;;;;;;;;;;;;;;;;;;;;;
2023/09/25 01:23:04;;;;;;;;;;;;;;;;;;;;;
2023/09/25 01:26:19;;;;;;;17.80;10.50;;;;;;;15.69;81.81;100069.30;99902;1264;94336;-92
2023/09/25 01:29:50;;;;;;;;;;;;;;;;;;;;;
2023/09/25 01:32:44;;;;;;;19.20;11.80;;;;;;;15.63;81.83;100069.73;107361;1269;95213;-92
2023/09/25 01:36:02;;;;;;;;;;;;;;;;;;;;;
2023/09/25 01:39:12;;;;;;;;;;;;;;;;;;;;;
2023/09/25 01:42:34;;;;;;;;;;;;;;;;;;;;;
2023/09/25 01:50:09;;;;;;;;;;;;;;;;;;;;;
2023/09/25 01:53:23;;;;;;;19.80;10.80;;;;;;;15.43;81.69;100044.54;107048;1270;107872;-91
2023/09/25 01:57:04;;;;;;;;;;;;;;;;;;;;;
2023/09/25 02:00:18;;;;;;;;;;;;;;;;;;;;;
2023/09/25 02:03:41;;;;;;;18.20;10.90;;;;;;;15.31;81.71;100051.27;107234;1271;108448;-91
2023/09/25 02:06:50;;;;;;;;;;;;;;;;;;;;;
2023/09/25 02:10:29;;;;;;;;;;;;;;;;;;;;;
2023/09/25 02:16:24;;;;;;;;;;;;;;;;;;;;;
2023/09/25 02:20:03;;;;;;;;;;;;;;;;;;;;;
2023/09/25 02:29:16;;;;;;;19.10;10.50;;;;;;;15.35;81.74;100096.60;107453;1271;94699;-92
2023/09/25 02:32:25;;;;;;;19.40;10.80;;;;;;;15.36;81.87;100096.34;107485;1265;93849;-90
2023/09/25 02:35:33;;;;;;;;;;;;;;;;;;;;;
2023/09/25 02:38:59;;;;;;;;;;;;;;;;;;;;;
2023/09/25 02:42:30;;;;;;;18.10;10.30;;;;;;;15.33;81.80;100079.77;107256;1272;107708;-92
2023/09/25 02:45:59;;;;;;;;;;;;;;;;;;;;;
2023/09/25 02:58:51;;;;;;;;;;;;;;;;;;;;;
2023/09/25 03:02:12;;;;;;;;;;;;;;;;;;;;;
2023/09/25 03:05:50;;;;;;;;;;;;;;;;;;;;;
2023/09/25 03:15:52;;;;;;;;;;;;;;;;;;;;;
2023/09/25 03:19:38;;;;;;;;;;;;;;;;;;;;;
2023/09/25 03:22:54;;;;;;;;;;;;;;;;;;;;;
2023/09/25 03:26:02;;;;;;;;;;;;;;;;;;;;;
2023/09/25 03:29:33;;;;;;;;;;;;;;;;;;;;;
2023/09/25 03:32:54;;;;;;;;;;;;;;;;;;;;;
2023/09/25 03:42:43;;;;;;;;;;;;;;;;;;;;;
2023/09/25 03:49:27;;;;;;;;;;;;;;;;;;;;;
2023/09/25 03:53:02;;;;;;;;;;;;;;;;;;;;;
2023/09/25 04:01:57;;;;;;;19.90;11.50;;;;;;;15.25;81.89;100098.02;105817;1270;105841;-79
2023/09/25 04:04:25;;;;;;;20.30;11.90;;;;;;;15.25;81.84;100095.05;104201;1277;107662;-79
2023/09/25 04:06:53;;;;;;;21.00;11.80;;;;;;;15.25;81.76;100097.20;104297;1271;96742;-77
2023/09/25 04:09:21;;;;;;;19.90;11.80;;;;;;;15.22;81.75;100100.40;104452;1273;97968;-79
2023/09/25 04:11:49;;;;;;;22.40;11.90;;;;;;;15.19;81.77;100100.98;103933;1272;109915;-78
2023/09/25 04:14:17;;;;;;;19.50;12.30;;;;;;;15.16;81.78;100104.59;104374;1271;96536;-79
2023/09/25 04:16:45;;;;;;;22.20;13.00;;;;;;;15.16;81.93;100108.55;104040;1273;107650;-79
2023/09/25 04:19:13;;;;;;;21.10;12.90;;;;;;;15.17;81.89;100113.65;104151;1276;96662;-77
2023/09/25 04:21:42;;;;;;;22.70;12.80;;;;;;;15.12;81.84;100111.66;104193;1274;96635;-78
2023/09/25 04:24:10;;;;;;;22.70;13.20;;;;;;;15.10;81.99;100114.71;104144;1273;109576;-78
2023/09/25 04:26:41;;;;;;;21.40;12.80;;;;;;;15.10;81.96;100121.88;104140;1273;96714;-78
2023/09/25 04:29:15;;;;;;;21.10;12.50;;;;;;;15.10;81.99;100127.06;104125;1274;107732;-78
2023/09/25 04:31:46;;;;;;;21.60;12.20;;;;;;;15.11;82.00;100130.70;104029;1271;96768;-78
2023/09/25 04:34:14;;;;;;;20.80;13.00;;;;;;;15.14;82.15;100131.23;104073;1274;97125;-78
2023/09/25 04:36:44;;;;;;;22.60;13.60;;;;;;;15.15;82.05;100135.40;104062;1275;109514;-78
2023/09/25 04:39:16;;;;;;;23.10;14.30;;;;;;;15.14;81.97;100133.85;104145;1283;96566;-78
2023/09/25 04:41:47;;;;;;;22.40;13.00;;;;;;;15.16;82.08;100133.91;104199;1273;107657;-80
2023/09/25 04:44:15;;;;;;;20.90;12.90;;;;;;;15.16;82.18;100135.52;104207;1276;96721;-77
2023/09/25 04:46:43;;;;;;;22.00;13.30;;;;;;;15.17;82.03;100137.77;104287;1271;97700;-78
2023/09/25 04:49:13;;;;;;;22.10;13.40;;;;;;;15.19;82.06;100145.30;104419;1272;108028;-78
2023/09/25 04:51:41;;;;;;;23.30;13.80;;;;;;;15.21;82.11;100148.20;104048;1273;96581;-78
2023/09/25 04:54:10;;;;;;;22.20;13.60;;;;;;;15.24;82.07;100153.71;104039;1273;107733;-78
2023/09/25 04:56:38;;;;;;;25.70;13.70;;;;;;;15.26;82.15;100157.29;104137;1270;97896;-78
2023/09/25 04:59:06;;;;;;;24.60;13.60;;;;;;;15.29;82.17;100158.88;104253;1273;96742;-78
2023/09/25 05:01:34;;;;;;;22.20;13.00;;;;;;;15.30;82.14;100156.98;104482;1271;110580;-77
2023/09/25 05:04:02;;;;;;;21.10;12.80;;;;;;;15.32;82.10;100157.37;104056;1270;96643;-77
2023/09/25 05:06:30;;;;;;;22.20;12.60;;;;;;;15.33;82.12;100155.14;103909;1274;107741;-77
2023/09/25 05:08:57;;;;;;;22.30;12.90;;;;;;;15.36;82.24;100158.89;104016;1277;97866;-81
2023/09/25 05:11:25;;;;;;;22.60;13.30;;;;;;;15.37;82.16;100162.59;104336;1273;97357;-83
2023/09/25 05:13:53;;;;;;;21.80;12.60;;;;;;;15.38;82.18;100165.37;104224;1270;109432;-80
2023/09/25 05:16:21;;;;;;;22.50;12.80;;;;;;;15.39;82.24;100167.95;104032;1274;96586;-80
2023/09/25 05:18:50;;;;;;;21.90;13.00;;;;;;;15.39;82.13;100168.13;104072;1274;108061;-80
2023/09/25 05:21:19;;;;;;;25.50;13.80;;;;;;;15.40;82.10;100167.17;104195;1276;96704;-78
2023/09/25 05:23:47;;;;;;;22.40;12.90;;;;;;;15.40;82.12;100168.91;104444;1274;96693;-79
2023/09/25 05:26:14;;;;;;;21.30;11.80;;;;;;;15.40;82.01;100168.20;107420;1270;107894;-77
2023/09/25 05:28:43;;;;;;;22.40;13.10;;;;;;;15.38;81.99;100163.35;107503;1270;96118;-77
2023/09/25 05:31:11;;;;;;;21.30;11.90;;;;;;;15.37;82.15;100169.68;107471;1270;107384;-77
2023/09/25 05:33:39;;;;;;;18.60;11.10;;;;;;;15.39;82.15;100167.61;104523;1273;97770;-77
2023/09/25 05:36:07;;;;;;;19.40;10.90;;;;;;;15.40;82.16;100165.04;104462;1279;96542;-78
2023/09/25 05:38:35;;;;;;;29.50;11.40;;;;;;;15.40;81.97;100166.47;104349;1270;109143;-78
2023/09/25 05:41:02;;;;;;;18.70;11.00;;;;;;;15.40;82.08;100168.93;107246;1270;95341;-78
2023/09/25 05:43:30;;;;;;;19.50;10.80;;;;;;;15.42;82.10;100168.65;107393;1270;106382;-78
2023/09/25 05:45:58;;;;;;;18.30;10.70;;;;;;;15.44;82.03;100169.33;107266;1271;94706;-78
2023/09/25 05:48:26;;;;;;;19.50;10.40;;;;;;;15.50;82.27;100173.04;105921;1270;96707;-78
2023/09/25 05:50:54;;;;;;;17.30;9.80;;;;;;;15.55;82.28;100178.00;104347;1271;109988;-78
2023/09/25 05:53:25;;;;;;;17.50;9.70;;;;;;;15.59;82.32;100181.27;105975;1275;96772;-78
2023/09/25 05:55:55;;;;;;;20.90;10.90;;;;;;;15.66;82.19;100185.23;105671;1273;108042;-78
2023/09/25 05:58:23;;;;;;;20.00;10.30;;;;;;;15.70;82.29;100185.08;104071;1273;96638;-78
2023/09/25 06:00:51;;;;;;;18.50;9.10;;;;;;;15.75;82.22;100186.48;104515;1273;96571;-78
2023/09/25 06:03:19;;;;;;;14.10;8.40;;;;;;;15.78;82.25;100182.51;104430;1271;109420;-79
2023/09/25 06:05:47;;;;;;;21.10;10.50;;;;;;;15.80;82.26;100184.52;104221;1277;97105;-79
2023/09/25 06:08:15;;;;;;;16.80;9.00;;;;;;;15.84;82.29;100181.53;104047;1286;107481;-79
2023/09/25 06:10:45;;;;;;;16.90;8.70;;;;;;;15.86;82.23;100178.56;104223;1273;97467;-78
2023/09/25 06:13:13;;;;;;;18.60;9.70;;;;;;;15.84;82.13;100174.60;103985;1276;96616;-78
2023/09/25 06:15:42;;;;;;;16.00;8.30;;;;;;;15.85;82.39;100172.55;103984;1274;109637;-79
2023/09/25 06:18:10;;;;;;;16.00;8.60;;;;;;;15.88;82.37;100172.83;104339;1273;96554;-79
2023/09/25 06:20:39;;;;;;;16.60;8.80;;;;;;;15.91;82.36;100172.76;104170;1274;108366;-79
2023/09/25 06:23:07;;;;;;;17.30;9.20;;;;;;;15.93;82.40;100170.16;104263;1271;97257;-79
2023/09/25 06:25:37;;;;;;;17.90;9.30;;;;;;;15.97;82.26;100168.93;103984;1277;96641;-78
2023/09/25 06:28:05;;;;;;;17.90;9.30;;;;;;;16.01;82.40;100168.27;104085;1273;108058;-79
2023/09/25 06:30:34;;;;;;;17.10;8.00;;;;;;;16.04;82.26;100167.55;104111;1271;97251;-79
2023/09/25 06:33:02;;;;;;;15.90;8.60;;;;;;;16.02;82.22;100173.91;104150;1276;107749;-79
2023/09/25 06:35:30;;;;;;;17.10;9.00;;;;;;;16.00;82.26;100174.42;104230;1273;97544;-79
2023/09/25 06:37:58;;;;;;;16.30;9.00;;;;;;;16.00;82.33;100172.62;104150;1270;96664;-78
2023/09/25 06:40:26;;;;;;;16.00;9.00;;;;;;;16.05;82.39;100171.33;104135;1273;109532;-79
2023/09/25 06:42:54;;;;;;;15.80;8.20;;;;;;;16.09;82.27;100173.60;104220;1273;97952;-78
2023/09/25 06:45:22;;;;;;;15.20;8.70;;;;;;;16.06;82.03;100172.39;104121;1276;106722;-80
2023/09/25 06:47:50;;;;;;;14.20;7.80;;;;;;;16.00;82.21;100166.20;104246;1273;96718;-79
2023/09/25 06:50:18;;;;;;;13.90;7.50;;;;;;;15.99;82.25;100168.80;104221;1273;96505;-79
2023/09/25 06:52:46;;;;;;;16.40;8.60;;;;;;;15.99;82.32;100163.79;103975;1273;110095;-78
2023/09/25 06:55:14;;;;;;;14.10;7.50;;;;;;;16.02;82.31;100163.90;103978;1276;96749;-78
2023/09/25 06:57:42;;;;;;;15.10;8.10;;;;;;;16.06;82.32;100168.05;104204;1284;107126;-78
2023/09/25 07:00:11;;;;;;;15.40;8.30;;;;;;;16.08;82.17;100175.45;103992;1273;96778;-79
2023/09/25 07:02:40;;;;;;;13.90;7.50;;;;;;;16.07;82.32;100180.69;104233;1270;96632;-78
2023/09/25 07:05:09;;;;;;;15.40;8.50;;;;;;;16.11;82.34;100190.09;104186;1273;109565;-79
2023/09/25 07:07:37;;;;;;;18.30;8.60;;;;;;;16.14;82.43;100195.34;104197;1283;97266;-79
2023/09/25 07:10:09;;;;;;;14.60;7.30;;;;;;;16.16;82.23;100195.22;104186;1284;107668;-79
2023/09/25 07:12:37;;;;;;;15.50;8.00;;;;;;;16.12;82.27;100197.64;104155;1274;96726;-79
2023/09/25 07:15:06;;;;;;;15.40;8.30;;;;;;;16.07;82.20;100192.48;104246;1284;97882;-79
2023/09/25 07:17:34;;;;;;;14.00;7.50;;;;;;;16.04;82.20;100200.63;104301;1276;109873;-79
2023/09/25 07:20:02;;;;;;;15.80;8.50;;;;;;;16.05;82.19;100196.92;104200;1286;96650;-79
2023/09/25 07:22:31;;;;;;;14.70;8.10;;;;;;;16.08;82.55;100194.02;104321;1273;107667;-80
2023/09/25 07:24:59;;;;;;;16.40;9.10;;;;;;;16.14;82.40;100196.57;104333;1278;96599;-79
2023/09/25 07:27:28;;;;;;;15.80;8.50;;;;;;;16.21;82.26;100196.41;104257;1283;96542;-79
2023/09/25 07:29:56;;;;;;;13.90;8.10;;;;;;;16.21;82.32;100201.23;104042;1286;110072;-78
2023/09/25 07:32:24;;;;;;;17.80;9.40;;;;;;;16.24;82.48;100201.55;104141;1273;96644;-79
2023/09/25 07:34:52;;;;;;;14.70;7.70;;;;;;;16.29;82.51;100202.61;103928;1284;107511;-79
2023/09/25 07:37:19;;;;;;;13.40;7.30;;;;;;;16.33;82.36;100207.98;104233;1274;96671;-79
2023/09/25 07:39:48;;;;;;;16.20;8.10;;;;;;;16.37;82.64;100208.39;104195;1276;96712;-79
2023/09/25 07:42:16;;;;;;;17.60;8.40;;;;;;;16.41;82.46;100215.67;104124;1273;109486;-77
2023/09/25 07:44:46;;;;;;;14.50;7.60;;;;;;;16.41;82.40;100218.48;103973;1284;96606;-78
2023/09/25 07:47:14;;;;;;;15.10;8.20;;;;;;;16.44;82.39;100216.51;104020;1274;107602;-78
2023/09/25 07:49:44;;;;;;;14.60;7.30;;;;;;;16.44;82.41;100217.73;103975;1284;96561;-78
2023/09/25 07:52:19;;;;;;;15.60;7.60;;;;;;;16.44;82.47;100217.71;104253;1274;97951;-78
2023/09/25 07:54:49;;;;;;;14.00;7.50;;;;;;;16.46;82.33;100219.56;104093;1276;109634;-79
2023/09/25 07:57:19;;;;;;;14.10;8.00;;;;;;;16.44;82.36;100215.90;104282;1277;96845;-78
2023/09/25 07:59:48;;;;;;;15.80;9.00;;;;;;;16.47;82.43;100216.44;104127;1284;107567;-78
2023/09/25 08:02:20;;;;;;;14.00;7.30;;;;;;;16.53;82.48;100223.43;104017;1276;96689;-78
2023/09/25 08:04:49;;;;;;;14.90;7.80;;;;;;;16.57;82.56;100229.24;104052;1274;96590;-78
2023/09/25 08:07:18;;;;;;;15.10;7.70;;;;;;;16.60;82.35;100228.13;104249;1273;110064;-79
2023/09/25 08:09:48;;;;;;;15.70;7.40;;;;;;;16.63;82.30;100229.11;104407;1273;96743;-79
2023/09/25 08:12:15;;;;;;;12.80;7.00;;;;;;;16.66;82.60;100230.28;103851;1287;105667;-79
2023/09/25 08:14:44;;;;;;;15.40;7.50;;;;;;;16.72;82.59;100227.23;104211;1273;97904;-80
2023/09/25 08:17:12;;;;;;;16.30;7.40;;;;;;;16.75;82.54;100230.83;104195;1274;98024;-78
2023/09/25 08:19:40;;;;;;;12.90;7.10;;;;;;;16.78;82.26;100232.91;104353;1276;109467;-78
2023/09/25 08:22:09;;;;;;;12.90;7.00;;;;;;;16.82;82.50;100232.96;104175;1273;97945;-78
2023/09/25 08:24:37;;;;;;;12.90;7.30;;;;;;;16.87;82.53;100231.14;103965;1276;107308;-79
2023/09/25 08:27:05;;;;;;;13.80;7.30;;;;;;;16.91;82.37;100232.46;104261;1285;96684;-79
2023/09/25 08:29:33;;;;;;;15.70;7.60;;;;;;;16.94;82.29;100231.80;104055;1284;96814;-79
2023/09/25 08:32:01;;;;;;;14.20;7.50;;;;;;;16.98;82.28;100230.66;103900;1284;109844;-80
2023/09/25 08:34:29;;;;;;;18.10;8.70;;;;;;;17.00;82.29;100224.95;104231;1273;96554;-80
2023/09/25 08:36:56;;;;;;;15.30;7.60;;;;;;;17.01;82.16;100224.54;104221;1274;108383;-79
2023/09/25 08:39:24;;;;;;;14.70;6.90;;;;;;;17.03;82.35;100227.23;104266;1273;96555;-79
2023/09/25 08:41:53;;;;;;;15.80;7.40;;;;;;;17.06;82.32;100221.77;104281;1273;96672;-78
2023/09/25 08:44:21;;;;;;;15.40;7.90;;;;;;;17.07;82.22;100218.15;103827;1279;109388;-79
2023/09/25 08:46:50;;;;;;;15.50;8.00;;;;;;;17.09;82.28;100220.66;104096;1284;96656;-79
2023/09/25 08:49:18;;;;;;;16.10;7.70;;;;;;;17.09;82.19;100228.36;104236;1276;107650;-78
2023/09/25 08:51:46;;;;;;;16.00;7.60;;;;;;;17.07;82.18;100225.27;104262;1286;96660;-78
2023/09/25 08:54:14;;;;;;;14.10;7.30;;;;;;;17.09;82.20;100227.48;103945;1284;96715;-78
2023/09/25 08:56:43;;;;;;;16.00;8.00;;;;;;;17.10;82.22;100231.32;104142;1273;109491;-78
2023/09/25 08:59:11;;;;;;;15.60;7.50;;;;;;;17.10;82.15;100230.58;104179;1276;96638;-78
2023/09/25 09:01:39;;;;;;;13.80;7.60;;;;;;;17.10;82.05;100233.48;104164;1274;107293;-78
2023/09/25 09:04:10;;;;;;;16.30;8.30;;;;;;;17.07;81.93;100234.81;104262;1284;96806;-77
2023/09/25 09:06:38;;;;;;;15.60;8.10;;;;;;;17.05;81.91;100235.87;104014;1270;96746;-79
2023/09/25 09:09:07;;;;;;;16.90;8.30;;;;;;;17.01;81.86;100239.55;104220;1273;108865;-78
2023/09/25 09:11:36;;;;;;;14.80;8.10;;;;;;;17.02;82.04;100236.09;106600;1273;96628;-78
2023/09/25 09:14:06;;;;;;;13.80;7.80;;;;;;;17.03;81.96;100234.06;104191;1274;107615;-79
2023/09/25 09:16:34;;;;;;;15.50;8.10;;;;;;;17.04;81.91;100229.69;104505;1273;96617;-78
2023/09/25 09:19:07;;;;;;;14.90;7.60;;;;;;;17.05;82.16;100225.80;104111;1275;96547;-79
2023/09/25 09:21:35;;;;;;;15.70;7.90;;;;;;;17.07;82.00;100224.60;104175;1273;111637;-79
2023/09/25 09:24:04;;;;;;;14.20;7.40;;;;;;;17.09;81.83;100218.09;104210;1270;97966;-78
2023/09/25 09:26:32;;;;;;;16.40;7.50;;;;;;;17.13;81.87;100218.39;104107;1273;107650;-78
2023/09/25 09:29:02;;;;;;;16.80;7.90;;;;;;;17.17;81.87;100221.27;103964;1273;96646;-77
2023/09/25 09:31:30;;;;;;;14.90;7.70;;;;;;;17.18;81.88;100224.58;104269;1270;97965;-79
2023/09/25 09:33:59;;;;;;;14.70;8.30;;;;;;;17.16;81.86;100222.59;103952;1274;109972;-79
2023/09/25 09:36:28;;;;;;;15.90;7.90;;;;;;;17.19;81.82;100217.31;104150;1284;97869;-79
2023/09/25 09:38:57;;;;;;;13.10;7.50;;;;;;;17.25;81.90;100217.59;104091;1274;157390;-78
2023/09/25 09:41:25;;;;;;;12.70;7.30;;;;;;;17.31;82.03;100226.05;104103;1276;97143;-78
2023/09/25 09:43:53;;;;;;;16.50;8.50;;;;;;;17.30;81.87;100225.54;104196;1274;100280;-79
2023/09/25 09:46:28;;;;;;;14.40;7.60;;;;;;;17.34;82.09;100217.90;104130;1270;109927;-79
2023/09/25 09:48:59;;;;;;;15.90;7.90;;;;;;;17.38;81.97;100214.73;104051;1292;96651;-79
2023/09/25 09:51:32;;;;;;;15.30;8.50;;;;;;;17.41;81.92;100213.18;104024;1288;107272;-79
2023/09/25 09:54:05;;;;;;;16.50;8.20;;;;;;;17.44;81.96;100217.79;104149;1285;96663;-79
2023/09/25 09:56:35;;;;;;;16.20;8.10;;;;;;;17.47;81.98;100210.56;104043;1271;96681;-79
2023/09/25 09:59:03;;;;;;;11.40;6.70;;;;;;;17.52;81.91;100206.16;104204;1273;110277;-78
2023/09/25 10:01:33;;;;;;;15.30;7.90;;;;;;;17.48;81.55;100207.75;104477;1269;96564;-77
2023/09/25 10:04:05;;;;;;;13.20;7.40;;;;;;;17.50;81.79;100212.07;103950;1276;107558;-79
2023/09/25 10:06:52;;;;;;;15.40;8.00;;;;;;;17.56;81.93;100215.02;104086;1270;96743;-79
2023/09/25 10:09:20;;;;;;;14.70;7.40;;;;;;;17.63;81.87;100213.02;104119;1273;97582;-78
2023/09/25 10:11:52;;;;;;;15.60;8.20;;;;;;;17.67;81.79;100210.16;104209;1270;110496;-78
2023/09/25 10:14:21;;;;;;;14.60;7.00;;;;;;;17.71;81.87;100208.22;104212;1273;96628;-78
2023/09/25 10:17:00;;;;;;;15.30;7.20;;;;;;;17.75;81.76;100200.92;104153;1270;107054;-78
2023/09/25 10:19:40;;;;;;;14.70;8.20;;;;;;;17.79;81.64;100203.73;104024;1287;96665;-78
2023/09/25 10:22:26;;;;;;;15.10;7.50;;;;;;;17.87;81.82;100203.77;104006;1273;97473;-77
2023/09/25 10:25:14;;;;;;;15.70;7.20;;;;;;;17.97;81.84;100203.19;104153;1287;110065;-79
2023/09/25 10:27:44;;;;;;;13.60;7.40;;;;;;;18.00;81.74;100198.77;104315;1270;96609;-78
2023/09/25 10:30:15;;;;;;;16.10;7.90;;;;;;;18.04;81.72;100194.13;104415;1270;107760;-78
2023/09/25 10:32:55;;;;;;;17.30;7.20;;;;;;;18.09;81.74;100191.20;104356;1273;96653;-77
2023/09/25 10:35:42;;;;;;;14.10;7.50;;;;;;;18.17;81.77;100191.93;104429;1270;97822;-78
2023/09/25 10:38:10;;;;;;;15.80;7.60;;;;;;;18.27;81.67;100188.56;104058;1276;109965;-79
2023/09/25 10:41:08;;;;;;;12.60;7.00;;;;;;;18.35;81.75;100178.41;104034;1274;96702;-78
2023/09/25 10:43:37;;;;;;;16.60;8.10;;;;;;;18.44;81.75;100174.17;103906;1284;107378;-80
2023/09/25 10:46:05;;;;;;;13.30;7.10;;;;;;;18.44;81.50;100171.09;104120;1273;97879;-79
2023/09/25 10:48:33;;;;;;;12.80;7.10;;;;;;;18.47;81.64;100169.36;104259;1276;96660;-79
2023/09/25 10:51:01;;;;;;;14.40;6.90;;;;;;;18.49;81.61;100161.71;104144;1273;110029;-77
2023/09/25 10:53:29;;;;;;;14.00;6.80;;;;;;;18.53;81.70;100161.57;104216;1275;96637;-78
2023/09/25 10:55:57;;;;;;;12.60;6.50;;;;;;;18.59;81.65;100161.86;104127;1274;107429;-79
2023/09/25 10:58:26;;;;;;;14.40;7.40;;;;;;;18.66;81.54;100161.45;104311;1273;97964;-79
2023/09/25 11:00:54;;;;;;;12.10;6.60;;;;;;;18.66;81.38;100153.61;104441;1284;96667;-77
2023/09/25 11:03:24;;;;;;;13.70;6.30;;;;;;;18.67;81.54;100145.91;104286;1276;109956;-77
2023/09/25 11:05:53;;;;;;;12.80;6.80;;;;;;;18.72;81.49;100144.89;104199;1270;96720;-79
2023/09/25 11:08:21;;;;;;;14.50;6.80;;;;;;;18.77;81.35;100142.88;103954;1274;107230;-77
2023/09/25 11:10:49;;;;;;;12.60;6.40;;;;;;;18.82;81.45;100147.07;104268;1273;96747;-79
2023/09/25 11:13:20;;;;;;;15.70;6.70;;;;;;;18.81;81.15;100149.83;104271;1271;96749;-78
2023/09/25 11:15:48;;;;;;;14.00;7.10;;;;;;;18.71;81.13;100148.91;104143;1278;110420;-79
2023/09/25 11:18:19;;;;;;;13.00;6.50;;;;;;;18.74;81.31;100146.85;104155;1270;96630;-80
2023/09/25 11:20:48;;;;;;;12.80;6.90;;;;;;;18.78;81.24;100149.05;103736;1289;108102;-80
2023/09/25 11:23:17;;;;;;;14.80;7.20;;;;;;;18.77;81.24;100152.91;103974;1277;96735;-79
2023/09/25 11:25:53;;;;;;;15.10;7.40;;;;;;;18.74;81.01;100150.64;104159;1270;96721;-78
2023/09/25 11:28:24;;;;;;;14.00;6.50;;;;;;;18.74;80.95;100148.92;104383;1270;109962;-77
2023/09/25 11:30:52;;;;;;;12.10;6.40;;;;;;;18.78;81.09;100152.83;104056;1277;97083;-79
2023/09/25 11:33:23;;;;;;;13.00;6.40;;;;;;;18.84;81.14;100154.11;104242;1273;107614;-78
2023/09/25 11:35:54;;;;;;;13.40;6.30;;;;;;;18.90;81.16;100155.51;104214;1270;96640;-80
2023/09/25 11:38:27;;;;;;;10.60;5.80;;;;;;;18.94;81.12;100160.62;104358;1270;96647;-78
2023/09/25 11:40:58;;;;;;;12.30;6.20;;;;;;;18.94;81.05;100164.39;104270;1270;109538;-78
2023/09/25 11:43:26;;;;;;;16.50;6.50;;;;;;;18.93;80.96;100165.58;104291;1270;96731;-79
2023/09/25 11:45:54;;;;;;;10.30;6.00;;;;;;;18.89;80.97;100165.18;104157;1274;107571;-79
2023/09/25 11:48:22;;;;;;;14.50;6.70;;;;;;;18.86;80.80;100168.09;104032;1270;96651;-77
2023/09/25 11:50:50;;;;;;;10.30;5.70;;;;;;;18.84;80.83;100167.80;104090;1277;96618;-79
2023/09/25 11:53:19;;;;;;;12.90;6.30;;;;;;;18.80;80.84;100166.51;103888;1273;108594;-79
2023/09/25 11:55:48;;;;;;;10.80;5.80;;;;;;;18.77;80.80;100164.99;103982;1273;96651;-79
2023/09/25 11:58:17;;;;;;;14.90;6.80;;;;;;;18.73;80.73;100162.23;104325;1274;107665;-79
2023/09/25 12:00:46;;;;;;;12.50;6.00;;;;;;;18.72;80.77;100161.45;104259;1273;96633;-78
2023/09/25 12:03:14;;;;;;;20.10;6.80;;;;;;;18.70;80.71;100160.02;103931;1276;96644;-78
2023/09/25 12:05:42;;;;;;;14.20;7.00;;;;;;;18.68;80.70;100161.27;104212;1274;110019;-80
2023/09/25 12:08:12;;;;;;;12.50;6.30;;;;;;;18.67;80.73;100157.24;103965;1273;96709;-78
2023/09/25 12:10:40;;;;;;;13.10;6.40;;;;;;;18.65;80.62;100159.23;104271;1270;107500;-78
2023/09/25 12:13:09;;;;;;;16.20;7.10;;;;;;;18.62;80.57;100158.56;104219;1271;97556;-78
2023/09/25 12:15:38;;;;;;;16.00;6.70;;;;;;;18.60;80.65;100162.49;104117;1274;98031;-78
2023/09/25 12:18:06;;;;;;;16.30;7.20;;;;;;;18.60;80.61;100159.99;104265;1270;110021;-78
2023/09/25 12:20:41;;;;;;;15.00;6.40;;;;;;;18.60;80.55;100161.95;103979;1273;96722;-79
2023/09/25 12:23:10;;;;;;;17.10;7.70;;;;;;;18.59;80.52;100161.86;104089;1284;107066;-80
2023/09/25 12:25:38;;;;;;;19.20;7.80;;;;;;;18.59;80.54;100161.86;104159;1273;96915;-80
2023/09/25 12:28:06;;;;;;;17.10;8.10;;;;;;;18.58;80.47;100163.36;103917;1273;96644;-80
2023/09/25 12:30:35;;;;;;;14.10;7.20;;;;;;;18.57;80.46;100163.98;104218;1273;109458;-80
2023/09/25 12:33:04;;;;;;;19.60;8.10;;;;;;;18.56;80.44;100159.66;104267;1270;96638;-80
2023/09/25 12:35:32;;;;;;;17.20;7.60;;;;;;;18.54;80.35;100162.64;104170;1285;107753;-81
2023/09/25 12:38:00;;;;;;;19.80;8.70;;;;;;;18.52;80.34;100163.41;104256;1271;97742;-80
2023/09/25 12:40:29;;;;;;;17.10;7.80;;;;;;;18.52;80.41;100166.87;104016;1273;96628;-79
2023/09/25 12:42:58;;;;;;;17.00;7.00;;;;;;;18.50;80.30;100170.02;104151;1270;111304;-80
2023/09/25 12:45:26;;;;;;;20.00;7.30;;;;;;;18.50;80.32;100172.80;104323;1270;96551;-78
2023/09/25 12:47:54;;;;;;;18.80;7.70;;;;;;;18.49;80.31;100172.30;104141;1271;107733;-80
2023/09/25 12:50:22;;;;;;;19.80;7.90;;;;;;;18.45;80.25;100169.76;104011;1273;96655;-81
2023/09/25 12:52:50;;;;;;;17.10;7.70;;;;;;;18.42;80.23;100171.48;104203;1271;97949;-80
2023/09/25 12:55:18;;;;;;;16.80;7.70;;;;;;;18.40;80.20;100168.94;103951;1275;109519;-78
2023/09/25 12:57:48;;;;;;;17.20;8.20;;;;;;;18.39;80.32;100169.02;104153;1273;96661;-79
2023/09/25 13:00:18;;;;;;;17.50;8.50;;;;;;;18.37;80.32;100164.86;104277;1284;107630;-80
2023/09/25 13:02:46;;;;;;;22.50;8.80;;;;;;;18.37;80.29;100163.25;104059;1273;96750;-79
2023/09/25 13:05:18;;;;;;;21.70;8.40;;;;;;;18.37;80.33;100166.48;104324;1271;96831;-79
2023/09/25 13:07:46;;;;;;;19.50;7.90;;;;;;;18.36;80.24;100165.90;107522;1270;110001;-79
2023/09/25 13:10:15;;;;;;;18.50;8.60;;;;;;;18.35;80.34;100165.46;106978;1269;96661;-79
2023/09/25 13:12:45;;;;;;;20.60;8.90;;;;;;;18.35;80.32;100167.38;104068;1273;107678;-80
2023/09/25 13:15:19;;;;;;;20.20;8.70;;;;;;;18.35;80.22;100166.67;104160;1271;96650;-79
2023/09/25 13:17:52;;;;;;;18.60;8.30;;;;;;;18.34;80.13;100165.72;104157;1271;96625;-80
2023/09/25 13:20:20;;;;;;;19.90;9.70;;;;;;;18.30;80.01;100168.17;104034;1269;109782;-78
2023/09/25 13:22:49;;;;;;;21.20;8.80;;;;;;;18.29;80.17;100168.81;104139;1273;96619;-79
2023/09/25 13:25:17;;;;;;;16.00;7.90;;;;;;;18.29;80.19;100170.43;104491;1270;106239;-78
2023/09/25 13:27:48;;;;;;;22.30;8.90;;;;;;;18.28;80.05;100171.61;103964;1273;96635;-78
2023/09/25 13:30:20;;;;;;;;;;;;;;;18.28;80.22;100172.47;104111;1273;97118;-78
2023/09/25 13:32:48;;;;;;;22.30;8.50;;;;;;;18.26;80.22;100169.95;104172;1270;108601;-79
2023/09/25 13:35:16;;;;;;;25.70;9.20;;;;;;;18.26;80.20;100163.71;104229;1273;96635;-79
2023/09/25 13:37:45;;;;;;;19.30;9.10;;;;;;;18.26;80.27;100162.77;104181;1270;107659;-82
2023/09/25 13:40:21;;;;;;;24.80;8.50;;;;;;;18.27;80.18;100163.98;104042;1273;96811;-78
2023/09/25 13:42:49;;;;;;;20.80;8.80;;;;;;;18.27;80.15;100162.70;104133;1274;96627;-79
2023/09/25 13:45:17;;;;;;;24.40;8.70;;;;;;;18.27;80.17;100161.63;104310;1270;110103;-77
2023/09/25 13:47:45;;;;;;;23.50;8.70;;;;;;;18.27;80.16;100162.34;104197;1271;96641;-80
2023/09/25 13:50:14;;;;;;;22.50;10.20;;;;;;;18.26;80.06;100165.09;104192;1276;107672;-79
2023/09/25 13:52:42;;;;;;;24.00;10.80;;;;;;;18.26;80.11;100158.14;104174;1274;97981;-79
2023/09/25 13:55:13;;;;;;;22.00;9.60;;;;;;;18.26;80.21;100159.19;104304;1273;97575;-78
2023/09/25 13:57:43;;;;;;;24.70;10.40;;;;;;;18.26;80.04;100159.73;104043;1273;109938;-79
2023/09/25 14:00:11;;;;;;;24.30;10.40;;;;;;;18.26;80.10;100159.36;104082;1273;96651;-79
2023/09/25 14:02:42;;;;;;;27.70;10.00;;;;;;;18.26;80.05;100159.05;104223;1285;107725;-78